sensor_id;sensor_type;location;lat;lon;timestamp;pressure;altitude;pressure_sealevel;temperature;humidity
33155;BME280;19511;42.682;23.332;2023-05-21T00:01:52;95063.16;;;12.71;100.00
33155;BME280;19511;42.682;23.332;2023-05-21T00:04:20;95062.59;;;12.80;100.00
33155;BME280;19511;42.682;23.332;2023-05-21T00:06:46;94991.09;;;12.48;100.00
33155;BME280;19511;42.682;23.332;2023-05-21T00:09:11;95067.53;;;12.93;100.00
33155;BME280;19511;42.682;23.332;2023-05-21T00:11:37;95057.25;;;12.89;100.00
33155;BME280;19511;42.682;23.332;2023-05-21T00:14:02;95055.97;;;12.94;100.00
33155;BME280;19511;42.682;23.332;2023-05-21T00:16:28;95054.53;;;12.86;100.00
33155;BME280;19511;42.682;23.332;2023-05-21T00:18:53;95051.56;;;12.77;100.00
33155;BME280;19511;42.682;23.332;2023-05-21T00:21:19;95006.75;;;12.38;100.00
33155;BME280;19511;42.682;23.332;2023-05-21T00:23:50;95043.66;;;12.55;100.00
33155;BME280;19511;42.682;23.332;2023-05-21T00:26:19;95042.97;;;12.51;100.00
33155;BME280;19511;42.682;23.332;2023-05-21T00:28:46;95040.38;;;12.40;100.00
33155;BME280;19511;42.682;23.332;2023-05-21T00:31:11;95047.06;;;12.43;100.00
33155;BME280;19511;42.682;23.332;2023-05-21T00:33:37;95020.22;;;12.16;100.00
33155;BME280;19511;42.682;23.332;2023-05-21T00:36:02;95044.06;;;12.33;100.00
33155;BME280;19511;42.682;23.332;2023-05-21T00:38:28;95055.66;;;12.28;100.00
33155;BME280;19511;42.682;23.332;2023-05-21T00:41:06;95051.69;;;12.29;100.00
33155;BME280;19511;42.682;23.332;2023-05-21T00:43:40;95048.53;;;12.27;100.00
33155;BME280;19511;42.682;23.332;2023-05-21T00:46:10;94957.69;;;11.67;100.00
33155;BME280;19511;42.682;23.332;2023-05-21T00:48:36;95037.66;;;12.36;100.00
33155;BME280;19511;42.682;23.332;2023-05-21T00:51:07;95036.53;;;12.34;100.00
33155;BME280;19511;42.682;23.332;2023-05-21T00:53:33;94995.16;;;11.99;100.00
33155;BME280;19511;42.682;23.332;2023-05-21T00:56:02;95048.81;;;12.33;100.00
33155;BME280;19511;42.682;23.332;2023-05-21T00:58:28;95050.81;;;12.32;100.00
33155;BME280;19511;42.682;23.332;2023-05-21T01:00:54;95027.69;;;12.19;100.00
33155;BME280;19511;42.682;23.332;2023-05-21T01:03:22;95043.00;;;12.27;100.00
33155;BME280;19511;42.682;23.332;2023-05-21T01:05:51;95037.06;;;12.25;100.00
33155;BME280;19511;42.682;23.332;2023-05-21T01:08:18;95037.56;;;12.20;100.00
33155;BME280;19511;42.682;23.332;2023-05-21T01:10:49;95045.06;;;12.23;100.00
33155;BME280;19511;42.682;23.332;2023-05-21T01:13:16;95051.81;;;12.22;100.00
33155;BME280;19511;42.682;23.332;2023-05-21T01:15:45;95005.50;;;11.95;100.00
33155;BME280;19511;42.682;23.332;2023-05-21T01:18:11;94964.38;;;11.70;100.00
33155;BME280;19511;42.682;23.332;2023-05-21T01:20:38;95015.22;;;12.07;100.00
33155;BME280;19511;42.682;23.332;2023-05-21T01:23:04;95032.88;;;12.17;100.00
33155;BME280;19511;42.682;23.332;2023-05-21T01:25:30;95038.00;;;12.18;100.00
33155;BME280;19511;42.682;23.332;2023-05-21T01:27:55;95029.25;;;12.20;100.00
33155;BME280;19511;42.682;23.332;2023-05-21T01:30:22;95028.91;;;12.18;100.00
33155;BME280;19511;42.682;23.332;2023-05-21T01:33:02;95030.09;;;12.17;100.00
33155;BME280;19511;42.682;23.332;2023-05-21T01:35:34;95026.63;;;12.13;100.00
33155;BME280;19511;42.682;23.332;2023-05-21T01:40:57;95030.16;;;12.13;100.00
33155;BME280;19511;42.682;23.332;2023-05-21T01:43:28;95031.31;;;12.16;100.00
33155;BME280;19511;42.682;23.332;2023-05-21T01:45:56;95017.94;;;12.11;100.00
33155;BME280;19511;42.682;23.332;2023-05-21T01:48:24;94938.72;;;11.66;100.00
33155;BME280;19511;42.682;23.332;2023-05-21T01:50:52;95027.69;;;12.19;100.00
33155;BME280;19511;42.682;23.332;2023-05-21T01:53:19;95024.91;;;12.19;100.00
33155;BME280;19511;42.682;23.332;2023-05-21T01:55:47;94952.84;;;11.71;100.00
33155;BME280;19511;42.682;23.332;2023-05-21T01:58:13;95025.66;;;12.23;100.00
33155;BME280;19511;42.682;23.332;2023-05-21T02:00:40;94943.72;;;11.74;100.00
33155;BME280;19511;42.682;23.332;2023-05-21T02:03:06;94944.91;;;11.73;100.00
33155;BME280;19511;42.682;23.332;2023-05-21T02:05:33;95019.22;;;12.26;100.00
33155;BME280;19511;42.682;23.332;2023-05-21T02:07:58;95006.22;;;12.23;100.00
33155;BME280;19511;42.682;23.332;2023-05-21T02:10:25;94974.22;;;11.95;100.00
33155;BME280;19511;42.682;23.332;2023-05-21T02:12:51;95014.41;;;12.30;100.00
33155;BME280;19511;42.682;23.332;2023-05-21T02:15:16;95009.00;;;12.23;100.00
33155;BME280;19511;42.682;23.332;2023-05-21T02:17:43;94953.47;;;11.83;100.00
33155;BME280;19511;42.682;23.332;2023-05-21T02:20:09;94999.72;;;12.09;100.00
33155;BME280;19511;42.682;23.332;2023-05-21T02:22:39;95007.75;;;12.04;100.00
33155;BME280;19511;42.682;23.332;2023-05-21T02:25:06;95010.00;;;12.13;100.00
33155;BME280;19511;42.682;23.332;2023-05-21T02:27:37;95003.69;;;12.08;100.00
33155;BME280;19511;42.682;23.332;2023-05-21T02:30:04;95000.72;;;11.99;100.00
33155;BME280;19511;42.682;23.332;2023-05-21T02:32:30;95017.72;;;12.01;100.00
33155;BME280;19511;42.682;23.332;2023-05-21T02:34:57;95011.06;;;11.95;100.00
33155;BME280;19511;42.682;23.332;2023-05-21T02:37:24;94976.88;;;11.78;100.00
33155;BME280;19511;42.682;23.332;2023-05-21T02:39:54;94917.97;;;11.30;100.00
33155;BME280;19511;42.682;23.332;2023-05-21T02:42:23;95017.91;;;11.87;100.00
33155;BME280;19511;42.682;23.332;2023-05-21T02:44:49;94996.72;;;11.76;100.00
33155;BME280;19511;42.682;23.332;2023-05-21T02:47:16;95003.09;;;11.73;100.00
33155;BME280;19511;42.682;23.332;2023-05-21T02:49:41;94938.59;;;11.25;100.00
33155;BME280;19511;42.682;23.332;2023-05-21T02:52:07;94999.72;;;11.62;100.00
33155;BME280;19511;42.682;23.332;2023-05-21T02:54:32;94996.97;;;11.62;100.00
33155;BME280;19511;42.682;23.332;2023-05-21T02:56:57;94997.44;;;11.57;100.00
33155;BME280;19511;42.682;23.332;2023-05-21T02:59:23;94996.69;;;11.53;100.00
33155;BME280;19511;42.682;23.332;2023-05-21T03:01:48;94992.06;;;11.46;100.00
33155;BME280;19511;42.682;23.332;2023-05-21T03:04:14;94995.19;;;11.48;100.00
33155;BME280;19511;42.682;23.332;2023-05-21T03:06:41;95001.84;;;11.54;100.00
33155;BME280;19511;42.682;23.332;2023-05-21T03:09:06;95006.19;;;11.55;100.00
33155;BME280;19511;42.682;23.332;2023-05-21T03:11:32;94932.59;;;11.03;100.00
33155;BME280;19511;42.682;23.332;2023-05-21T03:13:58;95012.47;;;11.56;100.00
33155;BME280;19511;42.682;23.332;2023-05-21T03:16:23;95014.84;;;11.57;100.00
33155;BME280;19511;42.682;23.332;2023-05-21T03:18:48;94993.56;;;11.51;100.00
33155;BME280;19511;42.682;23.332;2023-05-21T03:21:14;95013.22;;;11.60;100.00
33155;BME280;19511;42.682;23.332;2023-05-21T03:23:40;94995.88;;;11.56;100.00
33155;BME280;19511;42.682;23.332;2023-05-21T03:26:07;95013.16;;;11.64;100.00
33155;BME280;19511;42.682;23.332;2023-05-21T03:28:33;95016.22;;;11.69;100.00
33155;BME280;19511;42.682;23.332;2023-05-21T03:30:59;95015.00;;;11.70;100.00
33155;BME280;19511;42.682;23.332;2023-05-21T03:33:25;94928.03;;;11.17;100.00
33155;BME280;19511;42.682;23.332;2023-05-21T03:35:50;94932.34;;;11.21;100.00
33155;BME280;19511;42.682;23.332;2023-05-21T03:38:16;95019.69;;;11.77;100.00
33155;BME280;19511;42.682;23.332;2023-05-21T03:40:41;95020.69;;;11.87;100.00
33155;BME280;19511;42.682;23.332;2023-05-21T03:43:07;95013.22;;;11.84;100.00
33155;BME280;19511;42.682;23.332;2023-05-21T03:45:32;95009.59;;;11.87;100.00
33155;BME280;19511;42.682;23.332;2023-05-21T03:47:57;95018.06;;;12.03;100.00
33155;BME280;19511;42.682;23.332;2023-05-21T03:50:23;94972.91;;;11.79;100.00
33155;BME280;19511;42.682;23.332;2023-05-21T03:52:48;95021.06;;;12.13;100.00
33155;BME280;19511;42.682;23.332;2023-05-21T03:55:14;94979.53;;;11.85;100.00
33155;BME280;19511;42.682;23.332;2023-05-21T03:57:40;95018.16;;;12.20;100.00
33155;BME280;19511;42.682;23.332;2023-05-21T04:00:06;95010.47;;;12.28;100.00
33155;BME280;19511;42.682;23.332;2023-05-21T04:02:33;95002.97;;;12.28;100.00
33155;BME280;19511;42.682;23.332;2023-05-21T04:04:58;95012.56;;;12.44;100.00
33155;BME280;19511;42.682;23.332;2023-05-21T04:07:24;94997.78;;;12.50;100.00
33155;BME280;19511;42.682;23.332;2023-05-21T04:09:51;95009.94;;;12.56;100.00
33155;BME280;19511;42.682;23.332;2023-05-21T04:12:17;94992.97;;;12.54;100.00
33155;BME280;19511;42.682;23.332;2023-05-21T04:14:44;94920.53;;;12.08;100.00
33155;BME280;19511;42.682;23.332;2023-05-21T04:17:10;95006.16;;;12.67;100.00
33155;BME280;19511;42.682;23.332;2023-05-21T04:19:37;94952.31;;;12.44;100.00
33155;BME280;19511;42.682;23.332;2023-05-21T04:22:03;95013.63;;;12.90;100.00
33155;BME280;19511;42.682;23.332;2023-05-21T04:24:32;94995.28;;;12.76;100.00
33155;BME280;19511;42.682;23.332;2023-05-21T04:27:04;95018.19;;;13.00;100.00
33155;BME280;19511;42.682;23.332;2023-05-21T04:29:38;94942.50;;;12.60;100.00
33155;BME280;19511;42.682;23.332;2023-05-21T04:32:07;95006.00;;;12.94;100.00
33155;BME280;19511;42.682;23.332;2023-05-21T04:34:35;95016.25;;;12.97;100.00
33155;BME280;19511;42.682;23.332;2023-05-21T04:37:00;95008.13;;;13.06;100.00
33155;BME280;19511;42.682;23.332;2023-05-21T04:39:29;95007.03;;;13.20;100.00
33155;BME280;19511;42.682;23.332;2023-05-21T04:41:59;95002.00;;;13.32;100.00
33155;BME280;19511;42.682;23.332;2023-05-21T04:44:26;95009.56;;;13.31;100.00
33155;BME280;19511;42.682;23.332;2023-05-21T04:46:51;95006.16;;;13.23;100.00
33155;BME280;19511;42.682;23.332;2023-05-21T04:49:18;95013.53;;;13.30;100.00
33155;BME280;19511;42.682;23.332;2023-05-21T04:51:45;94996.53;;;13.28;100.00
33155;BME280;19511;42.682;23.332;2023-05-21T04:54:10;95005.25;;;13.47;100.00
33155;BME280;19511;42.682;23.332;2023-05-21T04:56:36;95008.41;;;13.49;100.00
33155;BME280;19511;42.682;23.332;2023-05-21T04:59:01;95014.28;;;13.67;100.00
33155;BME280;19511;42.682;23.332;2023-05-21T05:01:28;95001.28;;;13.81;100.00
33155;BME280;19511;42.682;23.332;2023-05-21T05:03:56;95010.66;;;13.87;100.00
33155;BME280;19511;42.682;23.332;2023-05-21T05:06:22;95003.34;;;14.10;100.00
33155;BME280;19511;42.682;23.332;2023-05-21T05:08:50;95002.78;;;14.31;100.00
33155;BME280;19511;42.682;23.332;2023-05-21T05:11:15;94938.22;;;13.78;100.00
33155;BME280;19511;42.682;23.332;2023-05-21T05:13:40;95006.78;;;14.30;100.00
33155;BME280;19511;42.682;23.332;2023-05-21T05:16:06;95007.44;;;14.34;100.00
33155;BME280;19511;42.682;23.332;2023-05-21T05:18:32;94996.94;;;14.26;100.00
33155;BME280;19511;42.682;23.332;2023-05-21T05:20:59;95012.91;;;14.38;100.00
33155;BME280;19511;42.682;23.332;2023-05-21T05:23:31;95007.34;;;14.38;100.00
33155;BME280;19511;42.682;23.332;2023-05-21T05:25:56;95002.38;;;14.46;100.00
33155;BME280;19511;42.682;23.332;2023-05-21T05:28:22;94991.06;;;14.53;100.00
33155;BME280;19511;42.682;23.332;2023-05-21T05:30:47;94942.00;;;14.30;100.00
33155;BME280;19511;42.682;23.332;2023-05-21T05:33:13;94996.03;;;14.75;100.00
33155;BME280;19511;42.682;23.332;2023-05-21T05:35:38;95007.47;;;14.93;100.00
33155;BME280;19511;42.682;23.332;2023-05-21T05:38:04;94936.84;;;14.58;100.00
33155;BME280;19511;42.682;23.332;2023-05-21T05:40:29;94999.56;;;15.05;100.00
33155;BME280;19511;42.682;23.332;2023-05-21T05:42:55;94998.56;;;15.24;100.00
33155;BME280;19511;42.682;23.332;2023-05-21T05:45:23;94990.00;;;15.31;100.00
33155;BME280;19511;42.682;23.332;2023-05-21T05:47:50;94995.56;;;15.31;100.00
33155;BME280;19511;42.682;23.332;2023-05-21T05:50:16;94977.19;;;15.21;100.00
33155;BME280;19511;42.682;23.332;2023-05-21T05:52:41;94946.75;;;14.88;100.00
33155;BME280;19511;42.682;23.332;2023-05-21T05:55:07;94988.22;;;15.38;100.00
33155;BME280;19511;42.682;23.332;2023-05-21T05:57:33;94982.75;;;15.34;100.00
33155;BME280;19511;42.682;23.332;2023-05-21T05:59:58;94989.66;;;15.55;100.00
33155;BME280;19511;42.682;23.332;2023-05-21T06:02:24;94978.50;;;15.55;100.00
33155;BME280;19511;42.682;23.332;2023-05-21T06:04:49;94986.31;;;15.86;100.00
33155;BME280;19511;42.682;23.332;2023-05-21T06:07:14;94975.88;;;15.99;100.00
33155;BME280;19511;42.682;23.332;2023-05-21T06:09:44;94981.22;;;16.07;100.00
33155;BME280;19511;42.682;23.332;2023-05-21T06:12:09;94965.44;;;16.26;100.00
33155;BME280;19511;42.682;23.332;2023-05-21T06:14:35;94900.84;;;15.92;100.00
33155;BME280;19511;42.682;23.332;2023-05-21T06:17:00;94971.81;;;16.48;100.00
33155;BME280;19511;42.682;23.332;2023-05-21T06:19:26;94948.84;;;16.44;100.00
33155;BME280;19511;42.682;23.332;2023-05-21T06:21:52;94961.94;;;16.57;100.00
33155;BME280;19511;42.682;23.332;2023-05-21T06:24:18;94948.16;;;16.40;100.00
33155;BME280;19511;42.682;23.332;2023-05-21T06:26:43;94943.94;;;16.58;100.00
33155;BME280;19511;42.682;23.332;2023-05-21T06:29:13;94952.97;;;16.62;100.00
33155;BME280;19511;42.682;23.332;2023-05-21T06:31:41;94872.94;;;16.14;100.00
33155;BME280;19511;42.682;23.332;2023-05-21T06:34:06;94948.19;;;16.62;100.00
33155;BME280;19511;42.682;23.332;2023-05-21T06:36:32;94942.22;;;16.51;100.00
33155;BME280;19511;42.682;23.332;2023-05-21T06:38:59;94937.78;;;16.63;100.00
33155;BME280;19511;42.682;23.332;2023-05-21T06:41:25;94936.97;;;16.53;100.00
33155;BME280;19511;42.682;23.332;2023-05-21T06:43:50;94939.72;;;16.75;100.00
33155;BME280;19511;42.682;23.332;2023-05-21T06:46:16;94944.94;;;16.86;100.00
33155;BME280;19511;42.682;23.332;2023-05-21T06:48:42;94941.16;;;17.02;100.00
33155;BME280;19511;42.682;23.332;2023-05-21T06:51:08;94927.41;;;17.17;100.00
33155;BME280;19511;42.682;23.332;2023-05-21T06:53:33;94925.50;;;17.14;100.00
33155;BME280;19511;42.682;23.332;2023-05-21T06:56:02;94934.47;;;17.40;100.00
33155;BME280;19511;42.682;23.332;2023-05-21T06:58:28;94939.66;;;17.51;100.00
33155;BME280;19511;42.682;23.332;2023-05-21T07:00:58;94936.72;;;17.55;100.00
33155;BME280;19511;42.682;23.332;2023-05-21T07:03:27;94934.81;;;17.52;100.00
33155;BME280;19511;42.682;23.332;2023-05-21T07:05:53;94922.69;;;17.45;100.00
33155;BME280;19511;42.682;23.332;2023-05-21T07:08:18;94927.09;;;17.65;100.00
33155;BME280;19511;42.682;23.332;2023-05-21T07:10:44;94913.44;;;17.86;100.00
33155;BME280;19511;42.682;23.332;2023-05-21T07:13:18;94914.41;;;18.01;100.00
33155;BME280;19511;42.682;23.332;2023-05-21T07:15:51;94917.84;;;17.96;100.00
33155;BME280;19511;42.682;23.332;2023-05-21T07:18:17;94915.50;;;18.13;100.00
33155;BME280;19511;42.682;23.332;2023-05-21T07:20:43;94920.16;;;17.98;100.00
33155;BME280;19511;42.682;23.332;2023-05-21T07:23:08;94904.03;;;18.02;100.00
33155;BME280;19511;42.682;23.332;2023-05-21T07:25:34;94916.16;;;18.17;100.00
33155;BME280;19511;42.682;23.332;2023-05-21T07:28:01;94909.13;;;18.40;100.00
33155;BME280;19511;42.682;23.332;2023-05-21T07:30:26;94913.16;;;18.67;100.00
33155;BME280;19511;42.682;23.332;2023-05-21T07:32:51;94920.13;;;18.81;100.00
33155;BME280;19511;42.682;23.332;2023-05-21T07:35:17;94918.25;;;18.97;100.00
33155;BME280;19511;42.682;23.332;2023-05-21T07:37:44;94923.03;;;19.05;100.00
33155;BME280;19511;42.682;23.332;2023-05-21T07:40:14;94899.81;;;19.14;100.00
33155;BME280;19511;42.682;23.332;2023-05-21T07:42:40;94920.00;;;19.28;100.00
33155;BME280;19511;42.682;23.332;2023-05-21T07:45:06;94919.31;;;19.42;100.00
33155;BME280;19511;42.682;23.332;2023-05-21T07:47:34;94910.78;;;19.36;100.00
33155;BME280;19511;42.682;23.332;2023-05-21T07:50:00;94891.97;;;19.28;100.00
33155;BME280;19511;42.682;23.332;2023-05-21T07:52:29;94907.38;;;19.56;100.00
33155;BME280;19511;42.682;23.332;2023-05-21T07:54:55;94857.38;;;19.55;100.00
33155;BME280;19511;42.682;23.332;2023-05-21T07:57:22;94899.47;;;20.03;100.00
33155;BME280;19511;42.682;23.332;2023-05-21T07:59:48;94888.31;;;20.18;100.00
33155;BME280;19511;42.682;23.332;2023-05-21T08:02:14;94915.66;;;20.33;100.00
33155;BME280;19511;42.682;23.332;2023-05-21T08:04:39;94907.59;;;20.26;100.00
33155;BME280;19511;42.682;23.332;2023-05-21T08:07:08;94901.31;;;20.31;100.00
33155;BME280;19511;42.682;23.332;2023-05-21T08:09:34;94897.97;;;20.17;100.00
33155;BME280;19511;42.682;23.332;2023-05-21T08:12:05;94917.63;;;20.17;100.00
33155;BME280;19511;42.682;23.332;2023-05-21T08:14:33;94892.34;;;20.02;100.00
33155;BME280;19511;42.682;23.332;2023-05-21T08:16:59;94906.13;;;20.15;99.14
33155;BME280;19511;42.682;23.332;2023-05-21T08:19:24;94909.22;;;20.17;99.83
33155;BME280;19511;42.682;23.332;2023-05-21T08:21:54;94836.59;;;19.62;100.00
33155;BME280;19511;42.682;23.332;2023-05-21T08:24:19;94903.81;;;20.14;100.00
33155;BME280;19511;42.682;23.332;2023-05-21T08:26:44;94897.63;;;20.25;98.06
33155;BME280;19511;42.682;23.332;2023-05-21T08:29:11;94886.69;;;20.27;96.15
33155;BME280;19511;42.682;23.332;2023-05-21T08:31:37;94906.13;;;20.15;94.52
33155;BME280;19511;42.682;23.332;2023-05-21T08:34:04;94912.94;;;19.99;100.00
33155;BME280;19511;42.682;23.332;2023-05-21T08:36:33;94902.25;;;19.88;100.00
33155;BME280;19511;42.682;23.332;2023-05-21T08:38:58;94891.22;;;19.75;100.00
33155;BME280;19511;42.682;23.332;2023-05-21T08:41:24;94900.72;;;19.87;99.75
33155;BME280;19511;42.682;23.332;2023-05-21T08:43:54;94907.81;;;19.98;95.57
33155;BME280;19511;42.682;23.332;2023-05-21T08:46:32;94902.34;;;20.18;96.14
33155;BME280;19511;42.682;23.332;2023-05-21T08:49:01;94893.50;;;20.50;97.69
33155;BME280;19511;42.682;23.332;2023-05-21T08:51:29;94835.06;;;20.39;95.25
33155;BME280;19511;42.682;23.332;2023-05-21T08:53:56;94877.16;;;20.78;92.58
33155;BME280;19511;42.682;23.332;2023-05-21T08:56:26;94903.63;;;20.71;93.23
33155;BME280;19511;42.682;23.332;2023-05-21T08:58:52;94883.19;;;20.71;92.12
33155;BME280;19511;42.682;23.332;2023-05-21T09:01:18;94897.91;;;20.81;91.19
33155;BME280;19511;42.682;23.332;2023-05-21T09:03:44;94822.78;;;20.51;93.00
33155;BME280;19511;42.682;23.332;2023-05-21T09:06:12;94894.22;;;20.90;94.96
33155;BME280;19511;42.682;23.332;2023-05-21T09:08:44;94905.06;;;20.97;95.70
33155;BME280;19511;42.682;23.332;2023-05-21T09:11:13;94900.41;;;20.94;96.19
33155;BME280;19511;42.682;23.332;2023-05-21T09:13:39;94906.31;;;20.66;96.53
33155;BME280;19511;42.682;23.332;2023-05-21T09:16:05;94899.72;;;20.69;96.68
33155;BME280;19511;42.682;23.332;2023-05-21T09:18:31;94900.28;;;20.58;98.89
33155;BME280;19511;42.682;23.332;2023-05-21T09:20:58;94903.84;;;20.44;93.30
33155;BME280;19511;42.682;23.332;2023-05-21T09:23:23;94903.88;;;20.59;96.06
33155;BME280;19511;42.682;23.332;2023-05-21T09:25:53;94894.63;;;20.82;92.99
33155;BME280;19511;42.682;23.332;2023-05-21T09:28:19;94898.66;;;20.66;91.64
33155;BME280;19511;42.682;23.332;2023-05-21T09:30:52;94903.63;;;20.71;90.72
33155;BME280;19511;42.682;23.332;2023-05-21T09:33:30;94899.19;;;20.80;90.20
33155;BME280;19511;42.682;23.332;2023-05-21T09:35:59;94895.75;;;20.76;87.40
33155;BME280;19511;42.682;23.332;2023-05-21T09:38:30;94877.34;;;20.60;85.36
33155;BME280;19511;42.682;23.332;2023-05-21T09:41:03;94892.53;;;20.68;85.06
33155;BME280;19511;42.682;23.332;2023-05-21T09:43:30;94885.97;;;20.86;86.83
33155;BME280;19511;42.682;23.332;2023-05-21T09:45:59;94898.50;;;20.85;84.02
33155;BME280;19511;42.682;23.332;2023-05-21T09:48:35;94826.84;;;20.50;83.51
33155;BME280;19511;42.682;23.332;2023-05-21T09:56:27;94886.72;;;21.16;86.48
33155;BME280;19511;42.682;23.332;2023-05-21T09:59:00;94884.25;;;21.39;82.20
33155;BME280;19511;42.682;23.332;2023-05-21T10:01:30;94854.19;;;21.30;82.11
33155;BME280;19511;42.682;23.332;2023-05-21T10:04:00;94881.75;;;21.41;83.28
33155;BME280;19511;42.682;23.332;2023-05-21T10:06:30;94880.94;;;21.56;82.64
33155;BME280;19511;42.682;23.332;2023-05-21T10:08:59;94861.25;;;21.76;80.60
33155;BME280;19511;42.682;23.332;2023-05-21T10:11:32;94862.53;;;21.96;81.13
33155;BME280;19511;42.682;23.332;2023-05-21T10:14:12;94860.63;;;21.87;80.12
33155;BME280;19511;42.682;23.332;2023-05-21T10:16:39;94878.34;;;21.37;82.45
33155;BME280;19511;42.682;23.332;2023-05-21T10:19:05;94867.47;;;21.45;83.46
33155;BME280;19511;42.682;23.332;2023-05-21T10:21:36;94803.66;;;21.00;80.47
33155;BME280;19511;42.682;23.332;2023-05-21T10:24:05;94875.13;;;21.44;84.21
33155;BME280;19511;42.682;23.332;2023-05-21T10:26:33;94879.47;;;21.10;84.29
33155;BME280;19511;42.682;23.332;2023-05-21T10:29:08;94870.31;;;21.30;80.67
33155;BME280;19511;42.682;23.332;2023-05-21T10:31:34;94858.16;;;21.39;81.35
33155;BME280;19511;42.682;23.332;2023-05-21T10:34:02;94865.22;;;21.64;85.50
33155;BME280;19511;42.682;23.332;2023-05-21T10:36:30;94873.25;;;21.92;84.84
33155;BME280;19511;42.682;23.332;2023-05-21T10:38:56;94869.44;;;21.74;84.11
33155;BME280;19511;42.682;23.332;2023-05-21T10:41:29;94852.19;;;21.87;84.52
33155;BME280;19511;42.682;23.332;2023-05-21T10:46:53;94860.34;;;21.64;86.74
33155;BME280;19511;42.682;23.332;2023-05-21T10:52:33;94861.06;;;21.44;86.02
33155;BME280;19511;42.682;23.332;2023-05-21T11:00:50;94861.06;;;21.44;86.65
33155;BME280;19511;42.682;23.332;2023-05-21T11:03:19;94859.41;;;21.02;87.18
33155;BME280;19511;42.682;23.332;2023-05-21T11:05:56;94861.91;;;21.00;87.12
33155;BME280;19511;42.682;23.332;2023-05-21T11:08:29;94858.47;;;20.90;89.32
33155;BME280;19511;42.682;23.332;2023-05-21T11:10:56;94855.34;;;20.73;93.57
33155;BME280;19511;42.682;23.332;2023-05-21T11:13:25;94854.06;;;20.44;92.63
33155;BME280;19511;42.682;23.332;2023-05-21T11:21:12;94841.06;;;20.32;95.54
33155;BME280;19511;42.682;23.332;2023-05-21T11:24:03;94840.03;;;20.74;94.34
33155;BME280;19511;42.682;23.332;2023-05-21T11:26:57;94842.03;;;21.03;90.64
33155;BME280;19511;42.682;23.332;2023-05-21T11:29:39;94834.41;;;20.89;90.93
33155;BME280;19511;42.682;23.332;2023-05-21T11:32:09;94840.81;;;20.75;94.78
33155;BME280;19511;42.682;23.332;2023-05-21T11:34:39;94833.38;;;20.71;96.47
33155;BME280;19511;42.682;23.332;2023-05-21T11:39:50;94831.31;;;20.57;94.09
33155;BME280;19511;42.682;23.332;2023-05-21T11:44:57;94835.66;;;20.43;97.89
33155;BME280;19511;42.682;23.332;2023-05-21T11:47:23;94830.81;;;20.59;96.57
33155;BME280;19511;42.682;23.332;2023-05-21T11:49:54;94820.47;;;20.65;98.01
33155;BME280;19511;42.682;23.332;2023-05-21T11:52:32;94754.97;;;20.29;98.06
33155;BME280;19511;42.682;23.332;2023-05-21T11:55:03;94829.09;;;20.76;99.58
33155;BME280;19511;42.682;23.332;2023-05-21T11:57:28;94821.06;;;20.84;99.03
33155;BME280;19511;42.682;23.332;2023-05-21T11:59:59;94812.94;;;20.71;100.00
33155;BME280;19511;42.682;23.332;2023-05-21T12:02:52;94821.13;;;20.90;98.11
33155;BME280;19511;42.682;23.332;2023-05-21T12:05:19;94820.53;;;20.55;100.00
33155;BME280;19511;42.682;23.332;2023-05-21T12:07:46;94824.81;;;20.51;100.00
33155;BME280;19511;42.682;23.332;2023-05-21T12:10:15;94764.06;;;19.94;100.00
33155;BME280;19511;42.682;23.332;2023-05-21T12:12:41;94819.19;;;20.36;100.00
33155;BME280;19511;42.682;23.332;2023-05-21T12:15:06;94806.00;;;20.12;100.00
33155;BME280;19511;42.682;23.332;2023-05-21T12:17:32;94807.53;;;20.13;100.00
33155;BME280;19511;42.682;23.332;2023-05-21T12:20:06;94816.84;;;19.80;100.00
33155;BME280;19511;42.682;23.332;2023-05-21T12:22:32;94813.53;;;19.82;100.00
33155;BME280;19511;42.682;23.332;2023-05-21T12:24:58;94814.13;;;19.71;100.00
33155;BME280;19511;42.682;23.332;2023-05-21T12:27:25;94830.03;;;19.65;100.00
33155;BME280;19511;42.682;23.332;2023-05-21T12:29:52;94762.94;;;19.13;100.00
33155;BME280;19511;42.682;23.332;2023-05-21T12:32:19;94744.03;;;19.22;100.00
33155;BME280;19511;42.682;23.332;2023-05-21T12:34:52;94813.63;;;19.72;100.00
33155;BME280;19511;42.682;23.332;2023-05-21T12:37:28;94804.50;;;19.63;100.00
33155;BME280;19511;42.682;23.332;2023-05-21T12:40:00;94740.84;;;19.30;100.00
33155;BME280;19511;42.682;23.332;2023-05-21T12:42:30;94795.78;;;19.61;100.00
33155;BME280;19511;42.682;23.332;2023-05-21T12:44:58;94790.53;;;19.53;100.00
33155;BME280;19511;42.682;23.332;2023-05-21T12:47:28;94801.63;;;19.72;100.00
33155;BME280;19511;42.682;23.332;2023-05-21T12:49:58;94739.50;;;19.25;100.00
33155;BME280;19511;42.682;23.332;2023-05-21T12:52:24;94789.16;;;19.49;100.00
33155;BME280;19511;42.682;23.332;2023-05-21T12:54:52;94734.91;;;19.13;100.00
33155;BME280;19511;42.682;23.332;2023-05-21T12:57:22;94798.28;;;19.58;100.00
33155;BME280;19511;42.682;23.332;2023-05-21T12:59:55;94795.50;;;19.58;100.00
33155;BME280;19511;42.682;23.332;2023-05-21T13:02:22;94797.16;;;19.65;100.00
33155;BME280;19511;42.682;23.332;2023-05-21T13:04:52;94800.75;;;19.66;100.00
33155;BME280;19511;42.682;23.332;2023-05-21T13:07:18;94800.50;;;19.54;100.00
33155;BME280;19511;42.682;23.332;2023-05-21T13:09:44;94793.41;;;19.44;100.00
33155;BME280;19511;42.682;23.332;2023-05-21T13:12:10;94790.47;;;19.63;100.00
33155;BME280;19511;42.682;23.332;2023-05-21T13:14:45;94794.81;;;19.64;100.00
33155;BME280;19511;42.682;23.332;2023-05-21T13:17:11;94789.22;;;19.64;100.00